sensor_id;sensor_type;location;lat;lon;timestamp;temperature;humidity
13354;DHT22;6746;50.892;4.064;2022-07-29T00:01:25;18.60;99.90
13354;DHT22;6746;50.892;4.064;2022-07-29T00:04:13;18.60;99.90
13354;DHT22;6746;50.892;4.064;2022-07-29T00:07:02;18.60;99.90
13354;DHT22;6746;50.892;4.064;2022-07-29T00:09:50;18.60;99.90
13354;DHT22;6746;50.892;4.064;2022-07-29T00:12:33;18.50;99.90
13354;DHT22;6746;50.892;4.064;2022-07-29T00:15:12;18.50;99.90
13354;DHT22;6746;50.892;4.064;2022-07-29T00:17:50;18.50;99.90
13354;DHT22;6746;50.892;4.064;2022-07-29T00:20:28;18.50;99.90
13354;DHT22;6746;50.892;4.064;2022-07-29T00:23:14;18.50;99.90
13354;DHT22;6746;50.892;4.064;2022-07-29T00:25:53;18.40;99.90
13354;DHT22;6746;50.892;4.064;2022-07-29T00:28:41;18.40;99.90
13354;DHT22;6746;50.892;4.064;2022-07-29T00:31:29;18.40;99.90
13354;DHT22;6746;50.892;4.064;2022-07-29T00:34:07;18.30;99.90
13354;DHT22;6746;50.892;4.064;2022-07-29T00:36:45;18.30;99.90
13354;DHT22;6746;50.892;4.064;2022-07-29T00:39:24;18.30;99.90
13354;DHT22;6746;50.892;4.064;2022-07-29T00:42:03;18.30;99.90
13354;DHT22;6746;50.892;4.064;2022-07-29T00:44:50;18.30;99.90
13354;DHT22;6746;50.892;4.064;2022-07-29T00:47:28;18.30;99.90
13354;DHT22;6746;50.892;4.064;2022-07-29T00:50:07;18.20;99.90
13354;DHT22;6746;50.892;4.064;2022-07-29T00:52:45;18.20;99.90
13354;DHT22;6746;50.892;4.064;2022-07-29T00:55:23;18.20;99.90
13354;DHT22;6746;50.892;4.064;2022-07-29T00:58:12;18.20;99.90
13354;DHT22;6746;50.892;4.064;2022-07-29T01:00:59;18.20;99.90
13354;DHT22;6746;50.892;4.064;2022-07-29T01:03:40;18.10;99.90
13354;DHT22;6746;50.892;4.064;2022-07-29T01:06:19;18.10;99.90
13354;DHT22;6746;50.892;4.064;2022-07-29T01:08:57;18.00;99.90
13354;DHT22;6746;50.892;4.064;2022-07-29T01:11:35;18.00;99.90
13354;DHT22;6746;50.892;4.064;2022-07-29T01:14:14;17.90;99.90
13354;DHT22;6746;50.892;4.064;2022-07-29T01:16:54;17.90;99.90
13354;DHT22;6746;50.892;4.064;2022-07-29T01:19:45;17.80;99.90
13354;DHT22;6746;50.892;4.064;2022-07-29T01:25:48;17.80;99.90
13354;DHT22;6746;50.892;4.064;2022-07-29T01:31:51;17.60;99.90
13354;DHT22;6746;50.892;4.064;2022-07-29T01:37:59;17.40;99.90
13354;DHT22;6746;50.892;4.064;2022-07-29T01:41:22;17.40;99.90
13354;DHT22;6746;50.892;4.064;2022-07-29T01:43:27;17.30;99.90
13354;DHT22;6746;50.892;4.064;2022-07-29T01:46:06;17.30;99.90
13354;DHT22;6746;50.892;4.064;2022-07-29T01:48:52;17.20;99.90
13354;DHT22;6746;50.892;4.064;2022-07-29T01:51:35;17.20;99.90
13354;DHT22;6746;50.892;4.064;2022-07-29T01:54:16;17.10;99.90
13354;DHT22;6746;50.892;4.064;2022-07-29T01:56:55;17.00;99.90
13354;DHT22;6746;50.892;4.064;2022-07-29T01:59:33;17.00;99.90
13354;DHT22;6746;50.892;4.064;2022-07-29T02:02:11;16.90;99.90
13354;DHT22;6746;50.892;4.064;2022-07-29T02:04:49;16.90;99.90
13354;DHT22;6746;50.892;4.064;2022-07-29T02:07:37;16.90;99.90
13354;DHT22;6746;50.892;4.064;2022-07-29T02:10:16;16.90;99.90
13354;DHT22;6746;50.892;4.064;2022-07-29T02:12:54;16.90;99.90
13354;DHT22;6746;50.892;4.064;2022-07-29T02:15:42;16.80;99.90
13354;DHT22;6746;50.892;4.064;2022-07-29T02:18:25;16.80;99.90
13354;DHT22;6746;50.892;4.064;2022-07-29T02:21:03;16.80;99.90
13354;DHT22;6746;50.892;4.064;2022-07-29T02:23:52;16.70;99.90
13354;DHT22;6746;50.892;4.064;2022-07-29T02:26:38;16.70;99.90
13354;DHT22;6746;50.892;4.064;2022-07-29T02:29:16;16.70;99.90
13354;DHT22;6746;50.892;4.064;2022-07-29T02:31:55;16.60;99.90
13354;DHT22;6746;50.892;4.064;2022-07-29T02:34:33;16.50;99.90
13354;DHT22;6746;50.892;4.064;2022-07-29T02:37:16;16.50;99.90
13354;DHT22;6746;50.892;4.064;2022-07-29T02:39:55;16.40;99.90
13354;DHT22;6746;50.892;4.064;2022-07-29T02:42:39;16.30;99.90
13354;DHT22;6746;50.892;4.064;2022-07-29T02:45:16;16.20;99.90
13354;DHT22;6746;50.892;4.064;2022-07-29T02:48:05;16.20;99.90
13354;DHT22;6746;50.892;4.064;2022-07-29T02:50:49;16.10;99.90
13354;DHT22;6746;50.892;4.064;2022-07-29T02:53:26;16.10;99.90
13354;DHT22;6746;50.892;4.064;2022-07-29T02:56:14;16.10;99.90
13354;DHT22;6746;50.892;4.064;2022-07-29T02:58:57;16.00;99.90
13354;DHT22;6746;50.892;4.064;2022-07-29T03:01:34;16.00;99.90
13354;DHT22;6746;50.892;4.064;2022-07-29T03:04:12;16.00;99.90
13354;DHT22;6746;50.892;4.064;2022-07-29T03:06:50;16.00;99.90
13354;DHT22;6746;50.892;4.064;2022-07-29T03:09:28;15.90;99.90
13354;DHT22;6746;50.892;4.064;2022-07-29T03:12:07;15.80;99.90
13354;DHT22;6746;50.892;4.064;2022-07-29T03:14:45;15.70;99.90
13354;DHT22;6746;50.892;4.064;2022-07-29T03:17:23;15.60;99.90
13354;DHT22;6746;50.892;4.064;2022-07-29T03:20:07;15.50;99.90
13354;DHT22;6746;50.892;4.064;2022-07-29T03:22:45;15.50;99.90
13354;DHT22;6746;50.892;4.064;2022-07-29T03:25:25;15.40;99.90
13354;DHT22;6746;50.892;4.064;2022-07-29T03:28:04;15.40;99.90
13354;DHT22;6746;50.892;4.064;2022-07-29T03:30:44;15.40;99.90
13354;DHT22;6746;50.892;4.064;2022-07-29T03:33:22;15.30;99.90
13354;DHT22;6746;50.892;4.064;2022-07-29T03:36:01;15.30;99.90
13354;DHT22;6746;50.892;4.064;2022-07-29T03:38:39;15.20;99.90
13354;DHT22;6746;50.892;4.064;2022-07-29T03:41:22;15.20;99.90
13354;DHT22;6746;50.892;4.064;2022-07-29T03:44:01;15.20;99.90
13354;DHT22;6746;50.892;4.064;2022-07-29T03:46:48;15.20;99.90
13354;DHT22;6746;50.892;4.064;2022-07-29T03:49:36;15.30;99.90
13354;DHT22;6746;50.892;4.064;2022-07-29T03:52:14;15.30;99.90
13354;DHT22;6746;50.892;4.064;2022-07-29T03:54:53;15.40;99.90
13354;DHT22;6746;50.892;4.064;2022-07-29T03:57:32;15.40;99.90
13354;DHT22;6746;50.892;4.064;2022-07-29T04:00:10;15.30;99.90
13354;DHT22;6746;50.892;4.064;2022-07-29T04:02:49;15.30;99.90
13354;DHT22;6746;50.892;4.064;2022-07-29T04:05:27;15.30;99.90
13354;DHT22;6746;50.892;4.064;2022-07-29T04:08:05;15.20;99.90
13354;DHT22;6746;50.892;4.064;2022-07-29T04:10:43;15.20;99.90
13354;DHT22;6746;50.892;4.064;2022-07-29T04:13:27;15.20;99.90
13354;DHT22;6746;50.892;4.064;2022-07-29T04:15:55;15.20;99.90
13354;DHT22;6746;50.892;4.064;2022-07-29T04:18:31;15.30;99.90
13354;DHT22;6746;50.892;4.064;2022-07-29T04:21:00;15.30;99.90
13354;DHT22;6746;50.892;4.064;2022-07-29T04:23:39;15.30;99.90
13354;DHT22;6746;50.892;4.064;2022-07-29T04:26:17;15.40;99.90
13354;DHT22;6746;50.892;4.064;2022-07-29T04:28:55;15.40;99.90
13354;DHT22;6746;50.892;4.064;2022-07-29T04:31:31;15.50;99.90
13354;DHT22;6746;50.892;4.064;2022-07-29T04:34:00;15.60;99.90
13354;DHT22;6746;50.892;4.064;2022-07-29T04:36:34;15.60;99.90
13354;DHT22;6746;50.892;4.064;2022-07-29T04:39:03;15.50;99.90
13354;DHT22;6746;50.892;4.064;2022-07-29T04:41:34;15.60;99.90
13354;DHT22;6746;50.892;4.064;2022-07-29T04:44:04;15.60;99.90
13354;DHT22;6746;50.892;4.064;2022-07-29T04:46:37;15.70;99.90
13354;DHT22;6746;50.892;4.064;2022-07-29T04:49:06;15.60;99.90
13354;DHT22;6746;50.892;4.064;2022-07-29T04:51:43;15.60;99.90
13354;DHT22;6746;50.892;4.064;2022-07-29T04:54:22;15.60;99.90
13354;DHT22;6746;50.892;4.064;2022-07-29T04:57:00;15.60;99.90
13354;DHT22;6746;50.892;4.064;2022-07-29T04:59:38;15.60;99.90
13354;DHT22;6746;50.892;4.064;2022-07-29T05:02:16;15.70;99.90
13354;DHT22;6746;50.892;4.064;2022-07-29T05:04:54;16.00;99.90
13354;DHT22;6746;50.892;4.064;2022-07-29T05:07:33;16.40;99.90
13354;DHT22;6746;50.892;4.064;2022-07-29T05:10:01;16.90;99.90
13354;DHT22;6746;50.892;4.064;2022-07-29T05:12:30;17.40;99.90
13354;DHT22;6746;50.892;4.064;2022-07-29T05:15:07;17.80;99.90
13354;DHT22;6746;50.892;4.064;2022-07-29T05:17:36;18.30;99.90
13354;DHT22;6746;50.892;4.064;2022-07-29T05:20:12;18.80;99.90
13354;DHT22;6746;50.892;4.064;2022-07-29T05:22:41;19.30;99.90
13354;DHT22;6746;50.892;4.064;2022-07-29T05:25:15;19.60;99.90
13354;DHT22;6746;50.892;4.064;2022-07-29T05:27:44;19.90;99.90
13354;DHT22;6746;50.892;4.064;2022-07-29T05:30:22;20.30;99.90
13354;DHT22;6746;50.892;4.064;2022-07-29T05:33:00;20.10;99.90
13354;DHT22;6746;50.892;4.064;2022-07-29T05:35:34;20.40;99.90
13354;DHT22;6746;50.892;4.064;2022-07-29T05:38:03;20.50;99.90
13354;DHT22;6746;50.892;4.064;2022-07-29T05:40:32;20.60;99.90
13354;DHT22;6746;50.892;4.064;2022-07-29T05:43:01;20.50;99.90
13354;DHT22;6746;50.892;4.064;2022-07-29T05:45:32;20.50;99.90
13354;DHT22;6746;50.892;4.064;2022-07-29T05:48:01;20.60;99.90
13354;DHT22;6746;50.892;4.064;2022-07-29T05:50:35;21.00;99.90
13354;DHT22;6746;50.892;4.064;2022-07-29T05:53:04;20.80;99.90
13354;DHT22;6746;50.892;4.064;2022-07-29T05:55:33;21.00;99.90
13354;DHT22;6746;50.892;4.064;2022-07-29T05:58:04;20.70;99.90
13354;DHT22;6746;50.892;4.064;2022-07-29T06:00:33;20.70;99.90
13354;DHT22;6746;50.892;4.064;2022-07-29T06:03:02;20.80;99.90
13354;DHT22;6746;50.892;4.064;2022-07-29T06:05:34;21.00;99.90
13354;DHT22;6746;50.892;4.064;2022-07-29T06:08:03;21.20;99.90
13354;DHT22;6746;50.892;4.064;2022-07-29T06:10:34;20.60;99.90
13354;DHT22;6746;50.892;4.064;2022-07-29T06:13:06;21.10;99.90
13354;DHT22;6746;50.892;4.064;2022-07-29T06:15:40;21.10;99.90
13354;DHT22;6746;50.892;4.064;2022-07-29T06:18:09;20.80;99.90
13354;DHT22;6746;50.892;4.064;2022-07-29T06:20:38;21.00;99.90
13354;DHT22;6746;50.892;4.064;2022-07-29T06:23:07;21.30;99.90
13354;DHT22;6746;50.892;4.064;2022-07-29T06:25:41;21.50;99.90
13354;DHT22;6746;50.892;4.064;2022-07-29T06:28:10;21.40;99.90
13354;DHT22;6746;50.892;4.064;2022-07-29T06:30:48;21.60;99.90
13354;DHT22;6746;50.892;4.064;2022-07-29T06:33:28;22.10;99.90
13354;DHT22;6746;50.892;4.064;2022-07-29T06:36:06;22.30;99.90
13354;DHT22;6746;50.892;4.064;2022-07-29T06:38:40;22.40;99.90
13354;DHT22;6746;50.892;4.064;2022-07-29T06:43:58;22.30;99.90
13354;DHT22;6746;50.892;4.064;2022-07-29T06:46:26;22.20;99.90
13354;DHT22;6746;50.892;4.064;2022-07-29T06:48:55;22.20;99.90
13354;DHT22;6746;50.892;4.064;2022-07-29T06:51:26;22.30;99.90
13354;DHT22;6746;50.892;4.064;2022-07-29T06:53:55;22.00;99.90
13354;DHT22;6746;50.892;4.064;2022-07-29T06:56:27;22.20;99.90
13354;DHT22;6746;50.892;4.064;2022-07-29T06:58:56;22.30;99.90
13354;DHT22;6746;50.892;4.064;2022-07-29T07:01:33;22.30;99.90
13354;DHT22;6746;50.892;4.064;2022-07-29T07:04:02;22.00;99.90
13354;DHT22;6746;50.892;4.064;2022-07-29T07:06:33;22.10;99.90
13354;DHT22;6746;50.892;4.064;2022-07-29T07:09:02;22.20;99.90
13354;DHT22;6746;50.892;4.064;2022-07-29T07:11:31;22.20;99.90
13354;DHT22;6746;50.892;4.064;2022-07-29T07:14:00;22.10;99.90
13354;DHT22;6746;50.892;4.064;2022-07-29T07:16:37;22.30;99.90
13354;DHT22;6746;50.892;4.064;2022-07-29T07:19:07;22.80;99.90
13354;DHT22;6746;50.892;4.064;2022-07-29T07:21:39;23.00;99.90
13354;DHT22;6746;50.892;4.064;2022-07-29T07:24:08;22.90;99.90
13354;DHT22;6746;50.892;4.064;2022-07-29T07:26:46;22.50;99.90
13354;DHT22;6746;50.892;4.064;2022-07-29T07:29:20;22.60;99.90
13354;DHT22;6746;50.892;4.064;2022-07-29T07:31:49;22.90;99.90
13354;DHT22;6746;50.892;4.064;2022-07-29T07:34:27;22.90;99.90
13354;DHT22;6746;50.892;4.064;2022-07-29T07:36:56;23.00;99.90
13354;DHT22;6746;50.892;4.064;2022-07-29T07:39:24;22.90;99.90
13354;DHT22;6746;50.892;4.064;2022-07-29T07:41:56;22.80;99.90
13354;DHT22;6746;50.892;4.064;2022-07-29T07:44:25;22.80;99.90
13354;DHT22;6746;50.892;4.064;2022-07-29T07:47:03;22.70;99.90
13354;DHT22;6746;50.892;4.064;2022-07-29T07:49:42;22.70;99.90
13354;DHT22;6746;50.892;4.064;2022-07-29T07:52:11;22.50;99.90
13354;DHT22;6746;50.892;4.064;2022-07-29T07:54:49;22.90;99.90
13354;DHT22;6746;50.892;4.064;2022-07-29T07:57:26;22.80;99.90
13354;DHT22;6746;50.892;4.064;2022-07-29T07:59:54;22.60;99.90
13354;DHT22;6746;50.892;4.064;2022-07-29T08:02:33;22.90;99.90
13354;DHT22;6746;50.892;4.064;2022-07-29T08:05:19;23.00;99.90
13354;DHT22;6746;50.892;4.064;2022-07-29T08:07:48;23.40;99.90
13354;DHT22;6746;50.892;4.064;2022-07-29T08:10:25;23.10;99.90
13354;DHT22;6746;50.892;4.064;2022-07-29T08:13:11;23.20;99.90
13354;DHT22;6746;50.892;4.064;2022-07-29T08:15:43;23.40;99.90
13354;DHT22;6746;50.892;4.064;2022-07-29T08:18:12;23.50;99.90
13354;DHT22;6746;50.892;4.064;2022-07-29T08:20:49;23.70;99.90
13354;DHT22;6746;50.892;4.064;2022-07-29T08:23:18;23.60;99.90
13354;DHT22;6746;50.892;4.064;2022-07-29T08:25:52;23.70;99.90
13354;DHT22;6746;50.892;4.064;2022-07-29T08:28:22;24.10;99.90
13354;DHT22;6746;50.892;4.064;2022-07-29T08:30:57;24.10;99.90
13354;DHT22;6746;50.892;4.064;2022-07-29T08:33:28;24.40;99.90
13354;DHT22;6746;50.892;4.064;2022-07-29T08:36:06;24.60;99.90
13354;DHT22;6746;50.892;4.064;2022-07-29T08:38:42;24.90;99.90
13354;DHT22;6746;50.892;4.064;2022-07-29T08:41:11;25.00;99.90
13354;DHT22;6746;50.892;4.064;2022-07-29T08:43:48;24.30;99.90
13354;DHT22;6746;50.892;4.064;2022-07-29T08:46:19;24.50;99.90
13354;DHT22;6746;50.892;4.064;2022-07-29T08:48:55;24.80;99.90
13354;DHT22;6746;50.892;4.064;2022-07-29T08:51:23;24.90;99.90
13354;DHT22;6746;50.892;4.064;2022-07-29T08:53:55;24.90;99.90
13354;DHT22;6746;50.892;4.064;2022-07-29T08:56:26;24.90;99.90
13354;DHT22;6746;50.892;4.064;2022-07-29T08:59:03;24.90;99.90
13354;DHT22;6746;50.892;4.064;2022-07-29T09:01:34;25.00;99.90
13354;DHT22;6746;50.892;4.064;2022-07-29T09:04:12;25.10;99.90
13354;DHT22;6746;50.892;4.064;2022-07-29T09:06:51;25.40;99.90
13354;DHT22;6746;50.892;4.064;2022-07-29T09:09:26;25.50;99.90
13354;DHT22;6746;50.892;4.064;2022-07-29T09:11:55;25.60;99.90
13354;DHT22;6746;50.892;4.064;2022-07-29T09:14:34;25.90;99.90
13354;DHT22;6746;50.892;4.064;2022-07-29T09:17:05;25.80;99.90
13354;DHT22;6746;50.892;4.064;2022-07-29T09:19:36;25.70;99.90
13354;DHT22;6746;50.892;4.064;2022-07-29T09:22:12;25.50;99.90
13354;DHT22;6746;50.892;4.064;2022-07-29T09:24:44;25.70;99.90
13354;DHT22;6746;50.892;4.064;2022-07-29T09:27:23;25.10;99.90
13354;DHT22;6746;50.892;4.064;2022-07-29T09:30:07;25.10;99.90
13354;DHT22;6746;50.892;4.064;2022-07-29T09:32:54;25.20;99.90
13354;DHT22;6746;50.892;4.064;2022-07-29T09:35:27;25.00;99.90
13354;DHT22;6746;50.892;4.064;2022-07-29T09:37:56;25.30;99.90
13354;DHT22;6746;50.892;4.064;2022-07-29T09:40:33;25.40;99.90
13354;DHT22;6746;50.892;4.064;2022-07-29T09:43:09;25.60;99.90
13354;DHT22;6746;50.892;4.064;2022-07-29T09:45:40;25.40;99.90
13354;DHT22;6746;50.892;4.064;2022-07-29T09:48:16;25.60;99.90
13354;DHT22;6746;50.892;4.064;2022-07-29T09:50:43;25.60;99.90
13354;DHT22;6746;50.892;4.064;2022-07-29T09:53:15;25.40;99.90
13354;DHT22;6746;50.892;4.064;2022-07-29T09:55:50;25.60;99.90
13354;DHT22;6746;50.892;4.064;2022-07-29T09:58:21;25.70;99.90
13354;DHT22;6746;50.892;4.064;2022-07-29T10:00:50;25.80;99.90
13354;DHT22;6746;50.892;4.064;2022-07-29T10:03:27;26.00;99.90
13354;DHT22;6746;50.892;4.064;2022-07-29T10:08:36;25.70;99.90
13354;DHT22;6746;50.892;4.064;2022-07-29T10:11:15;25.40;99.90
13354;DHT22;6746;50.892;4.064;2022-07-29T10:13:51;25.00;99.90
13354;DHT22;6746;50.892;4.064;2022-07-29T10:16:30;24.90;99.90
13354;DHT22;6746;50.892;4.064;2022-07-29T10:18:58;25.10;99.90
13354;DHT22;6746;50.892;4.064;2022-07-29T10:21:27;25.40;99.90
13354;DHT22;6746;50.892;4.064;2022-07-29T10:24:06;25.50;99.90
13354;DHT22;6746;50.892;4.064;2022-07-29T10:26:44;25.60;99.90
13354;DHT22;6746;50.892;4.064;2022-07-29T10:29:31;25.60;99.90
13354;DHT22;6746;50.892;4.064;2022-07-29T10:40:26;26.00;99.90
13354;DHT22;6746;50.892;4.064;2022-07-29T10:43:24;26.10;99.90
13354;DHT22;6746;50.892;4.064;2022-07-29T10:45:54;26.10;99.90
13354;DHT22;6746;50.892;4.064;2022-07-29T10:48:22;26.40;99.90
13354;DHT22;6746;50.892;4.064;2022-07-29T10:50:58;26.80;99.90
13354;DHT22;6746;50.892;4.064;2022-07-29T10:53:48;26.80;99.90
13354;DHT22;6746;50.892;4.064;2022-07-29T10:56:31;26.60;99.90
13354;DHT22;6746;50.892;4.064;2022-07-29T11:01:59;26.20;99.90
13354;DHT22;6746;50.892;4.064;2022-07-29T11:07:15;26.70;99.90
13354;DHT22;6746;50.892;4.064;2022-07-29T11:09:43;26.70;99.90
13354;DHT22;6746;50.892;4.064;2022-07-29T11:15:06;26.70;99.90
13354;DHT22;6746;50.892;4.064;2022-07-29T11:20:32;26.60;99.90
13354;DHT22;6746;50.892;4.064;2022-07-29T11:28:51;27.00;99.90
13354;DHT22;6746;50.892;4.064;2022-07-29T11:31:37;27.00;99.90
13354;DHT22;6746;50.892;4.064;2022-07-29T11:34:24;26.90;99.90
13354;DHT22;6746;50.892;4.064;2022-07-29T11:39:40;26.70;99.90
13354;DHT22;6746;50.892;4.064;2022-07-29T11:44:57;26.60;99.90
13354;DHT22;6746;50.892;4.064;2022-07-29T11:47:38;26.30;99.90
13354;DHT22;6746;50.892;4.064;2022-07-29T11:50:07;26.20;99.90
13354;DHT22;6746;50.892;4.064;2022-07-29T11:52:41;26.00;99.90
13354;DHT22;6746;50.892;4.064;2022-07-29T11:55:23;26.10;99.90
13354;DHT22;6746;50.892;4.064;2022-07-29T11:57:53;26.20;99.90
13354;DHT22;6746;50.892;4.064;2022-07-29T12:00:36;26.20;99.90
13354;DHT22;6746;50.892;4.064;2022-07-29T12:03:22;26.20;99.90
13354;DHT22;6746;50.892;4.064;2022-07-29T12:05:51;26.20;99.90
13354;DHT22;6746;50.892;4.064;2022-07-29T12:08:23;26.30;99.90
13354;DHT22;6746;50.892;4.064;2022-07-29T12:10:49;26.60;99.90
13354;DHT22;6746;50.892;4.064;2022-07-29T12:13:27;26.60;99.90
13354;DHT22;6746;50.892;4.064;2022-07-29T12:15:56;26.00;99.90
13354;DHT22;6746;50.892;4.064;2022-07-29T12:18:26;26.10;99.90
13354;DHT22;6746;50.892;4.064;2022-07-29T12:20:59;26.50;99.90
13354;DHT22;6746;50.892;4.064;2022-07-29T12:23:27;26.60;99.90
13354;DHT22;6746;50.892;4.064;2022-07-29T12:25:57;26.70;99.90
13354;DHT22;6746;50.892;4.064;2022-07-29T12:28:25;26.70;99.90
13354;DHT22;6746;50.892;4.064;2022-07-29T12:31:01;27.00;99.90
13354;DHT22;6746;50.892;4.064;2022-07-29T12:33:30;27.10;99.90
13354;DHT22;6746;50.892;4.064;2022-07-29T12:36:08;27.30;99.90
13354;DHT22;6746;50.892;4.064;2022-07-29T12:38:40;27.30;99.90
13354;DHT22;6746;50.892;4.064;2022-07-29T12:41:08;27.10;99.90
13354;DHT22;6746;50.892;4.064;2022-07-29T12:43:37;27.30;99.90
13354;DHT22;6746;50.892;4.064;2022-07-29T12:46:13;27.50;99.90
13354;DHT22;6746;50.892;4.064;2022-07-29T12:48:41;27.50;99.90
13354;DHT22;6746;50.892;4.064;2022-07-29T12:51:09;27.60;99.90
13354;DHT22;6746;50.892;4.064;2022-07-29T12:54:07;27.50;99.90
13354;DHT22;6746;50.892;4.064;2022-07-29T12:56:44;27.90;99.90
13354;DHT22;6746;50.892;4.064;2022-07-29T12:59:23;28.00;99.90
13354;DHT22;6746;50.892;4.064;2022-07-29T13:01:54;28.00;99.90
13354;DHT22;6746;50.892;4.064;2022-07-29T13:07:03;27.80;99.90
13354;DHT22;6746;50.892;4.064;2022-07-29T13:09:40;27.70;99.90
13354;DHT22;6746;50.892;4.064;2022-07-29T13:12:16;28.10;99.90
13354;DHT22;6746;50.892;4.064;2022-07-29T13:14:46;28.40;99.90
13354;DHT22;6746;50.892;4.064;2022-07-29T13:17:22;28.00;99.90
13354;DHT22;6746;50.892;4.064;2022-07-29T13:19:50;27.90;99.90
13354;DHT22;6746;50.892;4.064;2022-07-29T13:22:38;28.00;99.90
13354;DHT22;6746;50.892;4.064;2022-07-29T13:25:23;27.70;99.90
13354;DHT22;6746;50.892;4.064;2022-07-29T13:28:01;27.50;99.90
13354;DHT22;6746;50.892;4.064;2022-07-29T13:30:35;27.30;99.90
13354;DHT22;6746;50.892;4.064;2022-07-29T13:33:03;27.30;99.90
13354;DHT22;6746;50.892;4.064;2022-07-29T13:35:40;27.10;99.90
13354;DHT22;6746;50.892;4.064;2022-07-29T13:38:09;27.30;99.90
13354;DHT22;6746;50.892;4.064;2022-07-29T13:40:46;27.50;99.90
13354;DHT22;6746;50.892;4.064;2022-07-29T13:43:14;27.40;99.90
13354;DHT22;6746;50.892;4.064;2022-07-29T13:45:51;27.50;99.90
13354;DHT22;6746;50.892;4.064;2022-07-29T13:48:20;27.30;99.90
13354;DHT22;6746;50.892;4.064;2022-07-29T13:50:58;27.30;99.90
13354;DHT22;6746;50.892;4.064;2022-07-29T13:53:29;27.40;99.90
13354;DHT22;6746;50.892;4.064;2022-07-29T13:55:58;27.30;99.90
13354;DHT22;6746;50.892;4.064;2022-07-29T13:58:33;27.30;99.90
13354;DHT22;6746;50.892;4.064;2022-07-29T14:01:01;27.40;99.90
13354;DHT22;6746;50.892;4.064;2022-07-29T14:03:40;27.20;99.90
13354;DHT22;6746;50.892;4.064;2022-07-29T14:06:16;27.10;99.90
13354;DHT22;6746;50.892;4.064;2022-07-29T14:08:45;27.00;99.90
13354;DHT22;6746;50.892;4.064;2022-07-29T14:11:14;27.10;99.90
13354;DHT22;6746;50.892;4.064;2022-07-29T14:13:43;27.30;99.90
13354;DHT22;6746;50.892;4.064;2022-07-29T14:16:12;27.60;99.90
13354;DHT22;6746;50.892;4.064;2022-07-29T14:18:41;27.70;99.90
13354;DHT22;6746;50.892;4.064;2022-07-29T14:21:10;28.00;99.90
13354;DHT22;6746;50.892;4.064;2022-07-29T14:23:39;28.00;99.90
13354;DHT22;6746;50.892;4.064;2022-07-29T14:26:19;28.40;99.90
13354;DHT22;6746;50.892;4.064;2022-07-29T14:28:48;28.00;99.90
13354;DHT22;6746;50.892;4.064;2022-07-29T14:31:19;27.70;99.90
13354;DHT22;6746;50.892;4.064;2022-07-29T14:33:49;27.70;99.90
13354;DHT22;6746;50.892;4.064;2022-07-29T14:36:31;27.50;99.90
13354;DHT22;6746;50.892;4.064;2022-07-29T14:39:09;27.30;99.90
13354;DHT22;6746;50.892;4.064;2022-07-29T14:41:47;27.40;99.90
13354;DHT22;6746;50.892;4.064;2022-07-29T14:44:16;27.60;99.90
13354;DHT22;6746;50.892;4.064;2022-07-29T14:46:45;27.80;99.90
13354;DHT22;6746;50.892;4.064;2022-07-29T14:49:17;27.70;99.90
13354;DHT22;6746;50.892;4.064;2022-07-29T14:51:46;27.30;99.90
13354;DHT22;6746;50.892;4.064;2022-07-29T14:54:15;27.30;99.90
13354;DHT22;6746;50.892;4.064;2022-07-29T14:56:47;27.20;99.90
13354;DHT22;6746;50.892;4.064;2022-07-29T14:59:21;27.20;99.90
13354;DHT22;6746;50.892;4.064;2022-07-29T15:01:50;27.20;99.90
13354;DHT22;6746;50.892;4.064;2022-07-29T15:04:28;26.90;99.90
13354;DHT22;6746;50.892;4.064;2022-07-29T15:07:07;26.70;99.90
13354;DHT22;6746;50.892;4.064;2022-07-29T15:09:35;27.10;99.90
13354;DHT22;6746;50.892;4.064;2022-07-29T15:12:14;27.20;99.90
13354;DHT22;6746;50.892;4.064;2022-07-29T15:14:55;27.00;99.90
13354;DHT22;6746;50.892;4.064;2022-07-29T15:17:33;27.10;99.90
13354;DHT22;6746;50.892;4.064;2022-07-29T15:20:16;27.00;99.90
13354;DHT22;6746;50.892;4.064;2022-07-29T15:22:47;26.90;99.90
13354;DHT22;6746;50.892;4.064;2022-07-29T15:25:24;26.90;99.90
13354;DHT22;6746;50.892;4.064;2022-07-29T15:27:52;26.70;99.90
13354;DHT22;6746;50.892;4.064;2022-07-29T15:30:32;26.50;99.90
13354;DHT22;6746;50.892;4.064;2022-07-29T15:33:02;26.40;99.90
13354;DHT22;6746;50.892;4.064;2022-07-29T15:35:40;26.60;99.90
13354;DHT22;6746;50.892;4.064;2022-07-29T15:38:16;26.80;99.90
13354;DHT22;6746;50.892;4.064;2022-07-29T15:40:44;27.10;99.90
13354;DHT22;6746;50.892;4.064;2022-07-29T15:43:16;27.30;99.90
13354;DHT22;6746;50.892;4.064;2022-07-29T15:45:45;27.40;99.90
13354;DHT22;6746;50.892;4.064;2022-07-29T15:48:41;27.60;99.90
13354;DHT22;6746;50.892;4.064;2022-07-29T15:51:10;27.40;99.90
13354;DHT22;6746;50.892;4.064;2022-07-29T15:53:38;27.30;99.90
13354;DHT22;6746;50.892;4.064;2022-07-29T15:56:09;27.40;99.90
13354;DHT22;6746;50.892;4.064;2022-07-29T15:58:38;27.30;99.90
13354;DHT22;6746;50.892;4.064;2022-07-29T16:01:09;27.00;99.90
13354;DHT22;6746;50.892;4.064;2022-07-29T16:03:41;27.10;99.90
13354;DHT22;6746;50.892;4.064;2022-07-29T16:06:19;27.00;99.90
13354;DHT22;6746;50.892;4.064;2022-07-29T16:08:53;27.20;99.90
13354;DHT22;6746;50.892;4.064;2022-07-29T16:11:22;27.30;99.90
13354;DHT22;6746;50.892;4.064;2022-07-29T16:13:53;27.20;99.90
13354;DHT22;6746;50.892;4.064;2022-07-29T16:16:22;27.10;99.90
13354;DHT22;6746;50.892;4.064;2022-07-29T16:18:51;27.30;99.90
13354;DHT22;6746;50.892;4.064;2022-07-29T16:21:20;26.90;99.90
13354;DHT22;6746;50.892;4.064;2022-07-29T16:23:54;26.90;99.90
13354;DHT22;6746;50.892;4.064;2022-07-29T16:26:23;26.60;99.90
13354;DHT22;6746;50.892;4.064;2022-07-29T16:29:00;26.50;99.90
13354;DHT22;6746;50.892;4.064;2022-07-29T16:31:29;26.50;99.90
13354;DHT22;6746;50.892;4.064;2022-07-29T16:33:57;26.60;99.90
13354;DHT22;6746;50.892;4.064;2022-07-29T16:36:26;26.60;99.90
13354;DHT22;6746;50.892;4.064;2022-07-29T16:38:58;26.40;99.90
13354;DHT22;6746;50.892;4.064;2022-07-29T16:41:27;26.20;99.90
13354;DHT22;6746;50.892;4.064;2022-07-29T16:44:04;26.20;99.90
13354;DHT22;6746;50.892;4.064;2022-07-29T16:46:33;26.00;99.90
13354;DHT22;6746;50.892;4.064;2022-07-29T16:49:04;26.10;99.90
13354;DHT22;6746;50.892;4.064;2022-07-29T16:51:33;26.10;99.90
13354;DHT22;6746;50.892;4.064;2022-07-29T16:54:02;26.10;99.90
13354;DHT22;6746;50.892;4.064;2022-07-29T16:56:34;26.10;99.90
13354;DHT22;6746;50.892;4.064;2022-07-29T16:59:03;26.20;99.90
13354;DHT22;6746;50.892;4.064;2022-07-29T17:01:32;26.30;99.90
13354;DHT22;6746;50.892;4.064;2022-07-29T17:04:10;26.20;99.90
13354;DHT22;6746;50.892;4.064;2022-07-29T17:06:47;26.10;99.90
13354;DHT22;6746;50.892;4.064;2022-07-29T17:09:15;26.00;99.90
13354;DHT22;6746;50.892;4.064;2022-07-29T17:11:55;25.90;99.90
13354;DHT22;6746;50.892;4.064;2022-07-29T17:14:26;25.70;99.90
13354;DHT22;6746;50.892;4.064;2022-07-29T17:17:09;25.60;99.90
13354;DHT22;6746;50.892;4.064;2022-07-29T17:19:38;25.50;99.90
13354;DHT22;6746;50.892;4.064;2022-07-29T17:22:16;25.40;99.90
13354;DHT22;6746;50.892;4.064;2022-07-29T17:24:50;25.30;99.90